sensor_id;sensor_type;location;lat;lon;timestamp;P1;durP1;ratioP1;P2;durP2;ratioP2
26620;SDS011;14253;44.840;10.444;2023-04-15T00:00:51;3.88;;;0.95;;
26620;SDS011;14253;44.840;10.444;2023-04-15T00:03:17;4.07;;;1.08;;
26620;SDS011;14253;44.840;10.444;2023-04-15T00:05:43;6.50;;;1.33;;
26620;SDS011;14253;44.840;10.444;2023-04-15T00:08:09;3.30;;;1.15;;
26620;SDS011;14253;44.840;10.444;2023-04-15T00:10:35;5.25;;;0.95;;
26620;SDS011;14253;44.840;10.444;2023-04-15T00:13:05;6.55;;;1.33;;
26620;SDS011;14253;44.840;10.444;2023-04-15T00:15:45;2.33;;;1.02;;
26620;SDS011;14253;44.840;10.444;2023-04-15T00:18:15;4.43;;;1.13;;
26620;SDS011;14253;44.840;10.444;2023-04-15T00:20:41;5.60;;;1.20;;
26620;SDS011;14253;44.840;10.444;2023-04-15T00:23:07;7.75;;;1.10;;
26620;SDS011;14253;44.840;10.444;2023-04-15T00:25:33;5.97;;;1.50;;
26620;SDS011;14253;44.840;10.444;2023-04-15T00:27:59;4.00;;;1.08;;
26620;SDS011;14253;44.840;10.444;2023-04-15T00:30:24;7.45;;;1.42;;
26620;SDS011;14253;44.840;10.444;2023-04-15T00:32:51;6.22;;;1.08;;
26620;SDS011;14253;44.840;10.444;2023-04-15T00:35:19;3.13;;;1.02;;
26620;SDS011;14253;44.840;10.444;2023-04-15T00:37:45;5.32;;;1.52;;
26620;SDS011;14253;44.840;10.444;2023-04-15T00:40:12;4.70;;;1.30;;
26620;SDS011;14253;44.840;10.444;2023-04-15T00:42:38;4.10;;;1.15;;
26620;SDS011;14253;44.840;10.444;2023-04-15T00:45:04;4.28;;;1.00;;
26620;SDS011;14253;44.840;10.444;2023-04-15T00:47:31;11.93;;;1.30;;
26620;SDS011;14253;44.840;10.444;2023-04-15T00:49:59;2.20;;;0.90;;
26620;SDS011;14253;44.840;10.444;2023-04-15T00:52:25;3.85;;;0.90;;
26620;SDS011;14253;44.840;10.444;2023-04-15T00:54:52;5.78;;;1.40;;
26620;SDS011;14253;44.840;10.444;2023-04-15T00:57:19;4.57;;;1.55;;
26620;SDS011;14253;44.840;10.444;2023-04-15T00:59:47;4.97;;;1.20;;
26620;SDS011;14253;44.840;10.444;2023-04-15T01:02:13;5.57;;;1.38;;
26620;SDS011;14253;44.840;10.444;2023-04-15T01:04:39;6.50;;;1.48;;
26620;SDS011;14253;44.840;10.444;2023-04-15T01:07:06;4.88;;;1.35;;
26620;SDS011;14253;44.840;10.444;2023-04-15T01:09:32;3.45;;;1.10;;
26620;SDS011;14253;44.840;10.444;2023-04-15T01:11:58;4.90;;;1.38;;
26620;SDS011;14253;44.840;10.444;2023-04-15T01:14:24;9.80;;;1.85;;
26620;SDS011;14253;44.840;10.444;2023-04-15T01:16:51;4.35;;;1.20;;
26620;SDS011;14253;44.840;10.444;2023-04-15T01:19:17;10.70;;;1.73;;
26620;SDS011;14253;44.840;10.444;2023-04-15T01:21:44;4.40;;;1.08;;
26620;SDS011;14253;44.840;10.444;2023-04-15T01:24:10;6.32;;;1.38;;
26620;SDS011;14253;44.840;10.444;2023-04-15T01:26:37;6.78;;;1.55;;
26620;SDS011;14253;44.840;10.444;2023-04-15T01:29:06;6.53;;;1.88;;
26620;SDS011;14253;44.840;10.444;2023-04-15T01:31:32;9.43;;;1.60;;
26620;SDS011;14253;44.840;10.444;2023-04-15T01:33:59;5.15;;;1.55;;
26620;SDS011;14253;44.840;10.444;2023-04-15T01:36:25;14.27;;;2.13;;
26620;SDS011;14253;44.840;10.444;2023-04-15T01:38:52;8.00;;;1.60;;
26620;SDS011;14253;44.840;10.444;2023-04-15T01:41:22;5.70;;;2.00;;
26620;SDS011;14253;44.840;10.444;2023-04-15T01:43:53;4.28;;;1.67;;
26620;SDS011;14253;44.840;10.444;2023-04-15T01:46:19;5.22;;;1.95;;
26620;SDS011;14253;44.840;10.444;2023-04-15T01:48:45;5.43;;;1.70;;
26620;SDS011;14253;44.840;10.444;2023-04-15T01:51:11;5.07;;;1.73;;
26620;SDS011;14253;44.840;10.444;2023-04-15T01:53:37;6.50;;;1.73;;
26620;SDS011;14253;44.840;10.444;2023-04-15T01:56:03;5.60;;;1.48;;
26620;SDS011;14253;44.840;10.444;2023-04-15T01:58:29;4.57;;;1.50;;
26620;SDS011;14253;44.840;10.444;2023-04-15T02:00:55;2.92;;;1.60;;
26620;SDS011;14253;44.840;10.444;2023-04-15T02:03:21;10.02;;;4.10;;
26620;SDS011;14253;44.840;10.444;2023-04-15T02:05:51;4.10;;;1.75;;
26620;SDS011;14253;44.840;10.444;2023-04-15T02:08:16;4.13;;;1.50;;
26620;SDS011;14253;44.840;10.444;2023-04-15T02:10:42;6.43;;;1.70;;
26620;SDS011;14253;44.840;10.444;2023-04-15T02:13:08;4.82;;;1.85;;
26620;SDS011;14253;44.840;10.444;2023-04-15T02:15:35;2.75;;;1.38;;
26620;SDS011;14253;44.840;10.444;2023-04-15T02:18:01;4.28;;;1.15;;
26620;SDS011;14253;44.840;10.444;2023-04-15T02:20:27;7.20;;;1.70;;
26620;SDS011;14253;44.840;10.444;2023-04-15T02:22:56;5.35;;;1.98;;
26620;SDS011;14253;44.840;10.444;2023-04-15T02:25:22;6.88;;;1.83;;
26620;SDS011;14253;44.840;10.444;2023-04-15T02:27:48;7.55;;;2.78;;
26620;SDS011;14253;44.840;10.444;2023-04-15T02:30:15;5.50;;;2.53;;
26620;SDS011;14253;44.840;10.444;2023-04-15T02:32:41;6.55;;;2.20;;
26620;SDS011;14253;44.840;10.444;2023-04-15T02:35:09;5.72;;;1.90;;
26620;SDS011;14253;44.840;10.444;2023-04-15T02:37:35;7.65;;;2.10;;
26620;SDS011;14253;44.840;10.444;2023-04-15T02:40:08;5.38;;;2.75;;
26620;SDS011;14253;44.840;10.444;2023-04-15T02:42:38;7.85;;;2.70;;
26620;SDS011;14253;44.840;10.444;2023-04-15T02:45:08;5.40;;;2.58;;
26620;SDS011;14253;44.840;10.444;2023-04-15T02:47:34;6.13;;;2.30;;
26620;SDS011;14253;44.840;10.444;2023-04-15T02:50:03;7.65;;;3.20;;
26620;SDS011;14253;44.840;10.444;2023-04-15T02:52:30;4.22;;;2.00;;
26620;SDS011;14253;44.840;10.444;2023-04-15T02:54:56;5.35;;;2.33;;
26620;SDS011;14253;44.840;10.444;2023-04-15T02:57:25;6.75;;;2.30;;
26620;SDS011;14253;44.840;10.444;2023-04-15T02:59:55;9.73;;;2.30;;
26620;SDS011;14253;44.840;10.444;2023-04-15T03:02:22;8.23;;;2.13;;
26620;SDS011;14253;44.840;10.444;2023-04-15T03:04:48;5.68;;;2.00;;
26620;SDS011;14253;44.840;10.444;2023-04-15T03:07:14;4.72;;;1.75;;
26620;SDS011;14253;44.840;10.444;2023-04-15T03:09:41;9.68;;;1.85;;
26620;SDS011;14253;44.840;10.444;2023-04-15T03:12:07;6.60;;;1.70;;
26620;SDS011;14253;44.840;10.444;2023-04-15T03:14:33;3.03;;;1.40;;
26620;SDS011;14253;44.840;10.444;2023-04-15T03:16:59;5.05;;;2.00;;
26620;SDS011;14253;44.840;10.444;2023-04-15T03:19:25;3.35;;;1.73;;
26620;SDS011;14253;44.840;10.444;2023-04-15T03:21:51;3.70;;;1.60;;
26620;SDS011;14253;44.840;10.444;2023-04-15T03:24:17;3.83;;;1.73;;
26620;SDS011;14253;44.840;10.444;2023-04-15T03:26:44;3.05;;;1.60;;
26620;SDS011;14253;44.840;10.444;2023-04-15T03:29:14;4.13;;;1.67;;
26620;SDS011;14253;44.840;10.444;2023-04-15T03:31:40;3.70;;;1.65;;
26620;SDS011;14253;44.840;10.444;2023-04-15T03:34:06;5.53;;;1.92;;
26620;SDS011;14253;44.840;10.444;2023-04-15T03:36:32;5.28;;;1.90;;
26620;SDS011;14253;44.840;10.444;2023-04-15T03:38:58;6.20;;;2.03;;
26620;SDS011;14253;44.840;10.444;2023-04-15T03:41:26;8.05;;;1.92;;
26620;SDS011;14253;44.840;10.444;2023-04-15T03:43:53;6.50;;;2.08;;
26620;SDS011;14253;44.840;10.444;2023-04-15T03:46:19;8.35;;;2.83;;
26620;SDS011;14253;44.840;10.444;2023-04-15T03:48:45;2.67;;;1.27;;
26620;SDS011;14253;44.840;10.444;2023-04-15T03:51:12;6.35;;;1.73;;
26620;SDS011;14253;44.840;10.444;2023-04-15T03:53:37;3.88;;;1.80;;
26620;SDS011;14253;44.840;10.444;2023-04-15T03:56:03;6.78;;;1.60;;
26620;SDS011;14253;44.840;10.444;2023-04-15T03:58:30;4.93;;;2.13;;
26620;SDS011;14253;44.840;10.444;2023-04-15T04:00:56;3.38;;;1.70;;
26620;SDS011;14253;44.840;10.444;2023-04-15T04:03:22;5.90;;;1.80;;
26620;SDS011;14253;44.840;10.444;2023-04-15T04:05:47;3.33;;;1.73;;
26620;SDS011;14253;44.840;10.444;2023-04-15T04:08:13;7.13;;;2.10;;
26620;SDS011;14253;44.840;10.444;2023-04-15T04:10:40;11.57;;;2.08;;
26620;SDS011;14253;44.840;10.444;2023-04-15T04:13:06;5.68;;;1.90;;
26620;SDS011;14253;44.840;10.444;2023-04-15T04:15:32;4.50;;;2.05;;
26620;SDS011;14253;44.840;10.444;2023-04-15T04:17:58;6.72;;;1.80;;
26620;SDS011;14253;44.840;10.444;2023-04-15T04:20:24;6.78;;;2.05;;
26620;SDS011;14253;44.840;10.444;2023-04-15T04:22:50;4.25;;;2.38;;
26620;SDS011;14253;44.840;10.444;2023-04-15T04:25:16;4.68;;;1.75;;
26620;SDS011;14253;44.840;10.444;2023-04-15T04:27:42;4.63;;;2.40;;
26620;SDS011;14253;44.840;10.444;2023-04-15T04:30:09;7.55;;;2.22;;
26620;SDS011;14253;44.840;10.444;2023-04-15T04:32:35;6.55;;;1.98;;
26620;SDS011;14253;44.840;10.444;2023-04-15T04:35:02;7.85;;;2.38;;
26620;SDS011;14253;44.840;10.444;2023-04-15T04:37:28;3.08;;;1.73;;
26620;SDS011;14253;44.840;10.444;2023-04-15T04:39:54;5.15;;;2.13;;
26620;SDS011;14253;44.840;10.444;2023-04-15T04:42:20;8.82;;;2.72;;
26620;SDS011;14253;44.840;10.444;2023-04-15T04:44:46;9.30;;;2.55;;
26620;SDS011;14253;44.840;10.444;2023-04-15T04:47:12;13.70;;;2.55;;
26620;SDS011;14253;44.840;10.444;2023-04-15T04:49:38;5.05;;;1.90;;
26620;SDS011;14253;44.840;10.444;2023-04-15T04:52:05;5.32;;;2.15;;
26620;SDS011;14253;44.840;10.444;2023-04-15T04:54:31;5.75;;;2.20;;
26620;SDS011;14253;44.840;10.444;2023-04-15T04:56:57;11.02;;;2.50;;
26620;SDS011;14253;44.840;10.444;2023-04-15T04:59:23;5.57;;;2.20;;
26620;SDS011;14253;44.840;10.444;2023-04-15T05:01:49;4.03;;;2.10;;
26620;SDS011;14253;44.840;10.444;2023-04-15T05:04:15;4.63;;;2.20;;
26620;SDS011;14253;44.840;10.444;2023-04-15T05:06:41;6.18;;;2.55;;
26620;SDS011;14253;44.840;10.444;2023-04-15T05:09:07;6.00;;;2.45;;
26620;SDS011;14253;44.840;10.444;2023-04-15T05:11:33;6.75;;;2.58;;
26620;SDS011;14253;44.840;10.444;2023-04-15T05:13:59;7.28;;;2.22;;
26620;SDS011;14253;44.840;10.444;2023-04-15T05:16:26;6.25;;;2.60;;
26620;SDS011;14253;44.840;10.444;2023-04-15T05:18:52;6.47;;;2.63;;
26620;SDS011;14253;44.840;10.444;2023-04-15T05:21:18;5.05;;;2.45;;
26620;SDS011;14253;44.840;10.444;2023-04-15T05:23:44;6.57;;;2.28;;
26620;SDS011;14253;44.840;10.444;2023-04-15T05:26:11;9.20;;;2.33;;
26620;SDS011;14253;44.840;10.444;2023-04-15T05:28:37;5.00;;;2.00;;
26620;SDS011;14253;44.840;10.444;2023-04-15T05:31:03;7.10;;;2.67;;
26620;SDS011;14253;44.840;10.444;2023-04-15T05:33:29;7.68;;;2.58;;
26620;SDS011;14253;44.840;10.444;2023-04-15T05:35:54;4.47;;;2.40;;
26620;SDS011;14253;44.840;10.444;2023-04-15T05:38:20;5.20;;;1.92;;
26620;SDS011;14253;44.840;10.444;2023-04-15T05:40:46;6.88;;;2.45;;
26620;SDS011;14253;44.840;10.444;2023-04-15T05:43:12;7.72;;;2.88;;
26620;SDS011;14253;44.840;10.444;2023-04-15T05:45:38;4.20;;;2.47;;
26620;SDS011;14253;44.840;10.444;2023-04-15T05:48:04;9.45;;;3.10;;
26620;SDS011;14253;44.840;10.444;2023-04-15T05:50:30;8.07;;;3.00;;
26620;SDS011;14253;44.840;10.444;2023-04-15T05:52:56;4.63;;;3.13;;
26620;SDS011;14253;44.840;10.444;2023-04-15T05:55:22;6.68;;;3.30;;
26620;SDS011;14253;44.840;10.444;2023-04-15T05:57:48;4.30;;;2.72;;
26620;SDS011;14253;44.840;10.444;2023-04-15T06:00:14;5.53;;;3.20;;
26620;SDS011;14253;44.840;10.444;2023-04-15T06:02:40;6.47;;;3.30;;
26620;SDS011;14253;44.840;10.444;2023-04-15T06:05:06;4.60;;;2.90;;
26620;SDS011;14253;44.840;10.444;2023-04-15T06:07:36;7.25;;;3.45;;
26620;SDS011;14253;44.840;10.444;2023-04-15T06:10:03;6.80;;;3.15;;
26620;SDS011;14253;44.840;10.444;2023-04-15T06:12:30;12.77;;;3.63;;
26620;SDS011;14253;44.840;10.444;2023-04-15T06:14:56;7.13;;;3.83;;
26620;SDS011;14253;44.840;10.444;2023-04-15T06:17:22;11.07;;;3.45;;
26620;SDS011;14253;44.840;10.444;2023-04-15T06:19:48;6.50;;;3.63;;
26620;SDS011;14253;44.840;10.444;2023-04-15T06:22:19;7.88;;;3.50;;
26620;SDS011;14253;44.840;10.444;2023-04-15T06:24:47;7.50;;;3.40;;
26620;SDS011;14253;44.840;10.444;2023-04-15T06:27:17;14.40;;;4.28;;
26620;SDS011;14253;44.840;10.444;2023-04-15T06:29:43;5.72;;;3.45;;
26620;SDS011;14253;44.840;10.444;2023-04-15T06:32:09;6.03;;;3.80;;
26620;SDS011;14253;44.840;10.444;2023-04-15T06:34:35;6.53;;;4.03;;
26620;SDS011;14253;44.840;10.444;2023-04-15T06:37:01;7.15;;;4.05;;
26620;SDS011;14253;44.840;10.444;2023-04-15T06:39:27;7.25;;;4.55;;
26620;SDS011;14253;44.840;10.444;2023-04-15T06:41:53;7.78;;;4.55;;
26620;SDS011;14253;44.840;10.444;2023-04-15T06:44:20;9.05;;;4.35;;
26620;SDS011;14253;44.840;10.444;2023-04-15T06:46:46;6.68;;;4.22;;
26620;SDS011;14253;44.840;10.444;2023-04-15T06:49:12;8.70;;;5.10;;
26620;SDS011;14253;44.840;10.444;2023-04-15T06:51:38;6.00;;;4.43;;
26620;SDS011;14253;44.840;10.444;2023-04-15T06:54:04;9.50;;;4.82;;
26620;SDS011;14253;44.840;10.444;2023-04-15T06:56:31;6.25;;;4.30;;
26620;SDS011;14253;44.840;10.444;2023-04-15T06:58:57;5.55;;;4.47;;
26620;SDS011;14253;44.840;10.444;2023-04-15T07:01:23;8.80;;;4.72;;
26620;SDS011;14253;44.840;10.444;2023-04-15T07:03:49;11.93;;;4.20;;
26620;SDS011;14253;44.840;10.444;2023-04-15T07:06:15;9.55;;;4.85;;
26620;SDS011;14253;44.840;10.444;2023-04-15T07:08:41;9.95;;;5.20;;
26620;SDS011;14253;44.840;10.444;2023-04-15T07:11:07;7.63;;;5.20;;
26620;SDS011;14253;44.840;10.444;2023-04-15T07:13:33;8.27;;;4.75;;
26620;SDS011;14253;44.840;10.444;2023-04-15T07:15:59;6.93;;;4.43;;
26620;SDS011;14253;44.840;10.444;2023-04-15T07:18:24;8.90;;;4.18;;
26620;SDS011;14253;44.840;10.444;2023-04-15T07:20:50;5.18;;;4.00;;
26620;SDS011;14253;44.840;10.444;2023-04-15T07:23:16;8.48;;;4.78;;
26620;SDS011;14253;44.840;10.444;2023-04-15T07:25:42;8.43;;;4.28;;
26620;SDS011;14253;44.840;10.444;2023-04-15T07:28:08;6.50;;;4.53;;
26620;SDS011;14253;44.840;10.444;2023-04-15T07:30:35;5.43;;;4.20;;
26620;SDS011;14253;44.840;10.444;2023-04-15T07:33:01;7.15;;;4.38;;
26620;SDS011;14253;44.840;10.444;2023-04-15T07:35:28;7.13;;;4.68;;
26620;SDS011;14253;44.840;10.444;2023-04-15T07:37:53;9.38;;;4.45;;
26620;SDS011;14253;44.840;10.444;2023-04-15T07:40:20;7.00;;;4.00;;
26620;SDS011;14253;44.840;10.444;2023-04-15T07:42:46;6.13;;;4.20;;
26620;SDS011;14253;44.840;10.444;2023-04-15T07:45:13;6.15;;;4.35;;
26620;SDS011;14253;44.840;10.444;2023-04-15T07:47:40;6.20;;;4.35;;
26620;SDS011;14253;44.840;10.444;2023-04-15T07:50:08;7.07;;;4.57;;
26620;SDS011;14253;44.840;10.444;2023-04-15T07:52:37;6.80;;;4.10;;
26620;SDS011;14253;44.840;10.444;2023-04-15T07:55:04;9.05;;;4.93;;
26620;SDS011;14253;44.840;10.444;2023-04-15T07:57:33;8.40;;;4.05;;
26620;SDS011;14253;44.840;10.444;2023-04-15T07:59:59;6.13;;;4.25;;
26620;SDS011;14253;44.840;10.444;2023-04-15T08:02:25;7.90;;;3.88;;
26620;SDS011;14253;44.840;10.444;2023-04-15T08:04:51;9.23;;;3.80;;
26620;SDS011;14253;44.840;10.444;2023-04-15T08:07:18;4.38;;;3.30;;
26620;SDS011;14253;44.840;10.444;2023-04-15T08:09:44;9.25;;;3.50;;
26620;SDS011;14253;44.840;10.444;2023-04-15T08:12:10;8.20;;;3.40;;
26620;SDS011;14253;44.840;10.444;2023-04-15T08:14:38;7.43;;;3.85;;
26620;SDS011;14253;44.840;10.444;2023-04-15T08:17:04;5.70;;;3.75;;
26620;SDS011;14253;44.840;10.444;2023-04-15T08:19:30;7.63;;;3.17;;
26620;SDS011;14253;44.840;10.444;2023-04-15T08:21:56;6.55;;;3.58;;
26620;SDS011;14253;44.840;10.444;2023-04-15T08:24:23;9.35;;;3.65;;
26620;SDS011;14253;44.840;10.444;2023-04-15T08:26:51;9.63;;;3.50;;
26620;SDS011;14253;44.840;10.444;2023-04-15T08:29:17;4.88;;;3.58;;
26620;SDS011;14253;44.840;10.444;2023-04-15T08:31:43;5.28;;;3.65;;
26620;SDS011;14253;44.840;10.444;2023-04-15T08:34:12;4.40;;;3.30;;
26620;SDS011;14253;44.840;10.444;2023-04-15T08:36:39;7.65;;;4.13;;
26620;SDS011;14253;44.840;10.444;2023-04-15T08:39:05;6.93;;;3.22;;
26620;SDS011;14253;44.840;10.444;2023-04-15T08:41:44;6.97;;;3.42;;
26620;SDS011;14253;44.840;10.444;2023-04-15T08:44:14;7.07;;;3.40;;
26620;SDS011;14253;44.840;10.444;2023-04-15T08:46:41;5.53;;;3.33;;
26620;SDS011;14253;44.840;10.444;2023-04-15T08:49:09;7.35;;;4.13;;
26620;SDS011;14253;44.840;10.444;2023-04-15T08:51:40;7.72;;;4.05;;
26620;SDS011;14253;44.840;10.444;2023-04-15T08:54:07;5.93;;;3.38;;
26620;SDS011;14253;44.840;10.444;2023-04-15T08:56:33;6.47;;;3.83;;
26620;SDS011;14253;44.840;10.444;2023-04-15T08:59:01;4.88;;;3.63;;
26620;SDS011;14253;44.840;10.444;2023-04-15T09:01:28;6.78;;;4.40;;
26620;SDS011;14253;44.840;10.444;2023-04-15T09:03:53;7.20;;;3.80;;
26620;SDS011;14253;44.840;10.444;2023-04-15T09:06:21;5.32;;;3.47;;
26620;SDS011;14253;44.840;10.444;2023-04-15T09:08:51;6.85;;;3.42;;
26620;SDS011;14253;44.840;10.444;2023-04-15T09:11:17;6.18;;;3.22;;
26620;SDS011;14253;44.840;10.444;2023-04-15T09:13:43;6.57;;;3.92;;
26620;SDS011;14253;44.840;10.444;2023-04-15T09:16:10;8.52;;;3.45;;
26620;SDS011;14253;44.840;10.444;2023-04-15T09:18:37;7.97;;;3.30;;
26620;SDS011;14253;44.840;10.444;2023-04-15T09:21:11;5.22;;;3.88;;
26620;SDS011;14253;44.840;10.444;2023-04-15T09:23:39;7.18;;;3.42;;
26620;SDS011;14253;44.840;10.444;2023-04-15T09:26:17;5.10;;;3.72;;
26620;SDS011;14253;44.840;10.444;2023-04-15T09:28:43;5.90;;;3.65;;
26620;SDS011;14253;44.840;10.444;2023-04-15T09:31:09;4.93;;;3.63;;
26620;SDS011;14253;44.840;10.444;2023-04-15T09:33:40;6.78;;;3.50;;
26620;SDS011;14253;44.840;10.444;2023-04-15T09:36:20;5.97;;;3.20;;
26620;SDS011;14253;44.840;10.444;2023-04-15T09:38:56;6.78;;;3.40;;
26620;SDS011;14253;44.840;10.444;2023-04-15T09:41:23;5.80;;;3.67;;
26620;SDS011;14253;44.840;10.444;2023-04-15T09:43:50;7.45;;;3.47;;
26620;SDS011;14253;44.840;10.444;2023-04-15T09:46:16;3.85;;;2.90;;
26620;SDS011;14253;44.840;10.444;2023-04-15T09:48:42;6.03;;;3.35;;
26620;SDS011;14253;44.840;10.444;2023-04-15T09:51:08;7.28;;;3.47;;
26620;SDS011;14253;44.840;10.444;2023-04-15T09:53:35;8.10;;;3.72;;
26620;SDS011;14253;44.840;10.444;2023-04-15T09:56:03;5.35;;;3.33;;
26620;SDS011;14253;44.840;10.444;2023-04-15T09:58:32;7.72;;;3.53;;
26620;SDS011;14253;44.840;10.444;2023-04-15T10:00:59;5.93;;;3.22;;
26620;SDS011;14253;44.840;10.444;2023-04-15T10:03:29;7.82;;;3.70;;
26620;SDS011;14253;44.840;10.444;2023-04-15T10:05:56;5.57;;;3.30;;
26620;SDS011;14253;44.840;10.444;2023-04-15T10:08:29;8.30;;;3.90;;
26620;SDS011;14253;44.840;10.444;2023-04-15T10:10:57;6.60;;;3.53;;
26620;SDS011;14253;44.840;10.444;2023-04-15T10:13:24;6.32;;;3.58;;
26620;SDS011;14253;44.840;10.444;2023-04-15T10:16:06;6.43;;;3.17;;
26620;SDS011;14253;44.840;10.444;2023-04-15T10:18:42;6.72;;;3.60;;
26620;SDS011;14253;44.840;10.444;2023-04-15T10:21:10;5.75;;;3.50;;
26620;SDS011;14253;44.840;10.444;2023-04-15T10:23:38;4.65;;;3.53;;
26620;SDS011;14253;44.840;10.444;2023-04-15T10:26:05;7.88;;;3.75;;
26620;SDS011;14253;44.840;10.444;2023-04-15T10:28:34;6.72;;;3.47;;
26620;SDS011;14253;44.840;10.444;2023-04-15T10:31:00;7.50;;;3.33;;
26620;SDS011;14253;44.840;10.444;2023-04-15T10:33:29;6.47;;;4.00;;
26620;SDS011;14253;44.840;10.444;2023-04-15T10:35:56;6.53;;;3.17;;
26620;SDS011;14253;44.840;10.444;2023-04-15T10:38:38;5.32;;;3.90;;
26620;SDS011;14253;44.840;10.444;2023-04-15T10:43:56;5.60;;;3.15;;
26620;SDS011;14253;44.840;10.444;2023-04-15T10:46:35;5.32;;;3.08;;
26620;SDS011;14253;44.840;10.444;2023-04-15T10:49:13;8.00;;;3.22;;
26620;SDS011;14253;44.840;10.444;2023-04-15T10:54:08;5.38;;;3.40;;
26620;SDS011;14253;44.840;10.444;2023-04-15T10:59:30;6.43;;;3.00;;
26620;SDS011;14253;44.840;10.444;2023-04-15T11:02:00;6.57;;;3.50;;
26620;SDS011;14253;44.840;10.444;2023-04-15T11:07:36;6.65;;;3.05;;
26620;SDS011;14253;44.840;10.444;2023-04-15T11:12:40;3.75;;;3.10;;
26620;SDS011;14253;44.840;10.444;2023-04-15T11:18:09;5.00;;;3.38;;
26620;SDS011;14253;44.840;10.444;2023-04-15T11:20:36;5.60;;;3.20;;
26620;SDS011;14253;44.840;10.444;2023-04-15T11:23:04;7.18;;;3.22;;
26620;SDS011;14253;44.840;10.444;2023-04-15T11:25:31;6.43;;;3.40;;
26620;SDS011;14253;44.840;10.444;2023-04-15T11:27:59;4.55;;;3.42;;
26620;SDS011;14253;44.840;10.444;2023-04-15T11:30:31;4.80;;;3.33;;
26620;SDS011;14253;44.840;10.444;2023-04-15T11:33:00;7.45;;;3.67;;
26620;SDS011;14253;44.840;10.444;2023-04-15T11:35:28;5.90;;;3.45;;
26620;SDS011;14253;44.840;10.444;2023-04-15T11:37:55;5.75;;;3.65;;
26620;SDS011;14253;44.840;10.444;2023-04-15T11:40:22;6.70;;;3.83;;
26620;SDS011;14253;44.840;10.444;2023-04-15T11:43:02;5.13;;;3.60;;
26620;SDS011;14253;44.840;10.444;2023-04-15T11:45:29;7.43;;;3.88;;
26620;SDS011;14253;44.840;10.444;2023-04-15T11:48:09;7.57;;;3.58;;
26620;SDS011;14253;44.840;10.444;2023-04-15T11:50:37;6.45;;;3.47;;
26620;SDS011;14253;44.840;10.444;2023-04-15T11:53:06;4.80;;;3.03;;
26620;SDS011;14253;44.840;10.444;2023-04-15T11:58:28;7.07;;;3.13;;
26620;SDS011;14253;44.840;10.444;2023-04-15T12:00:56;8.32;;;3.20;;
26620;SDS011;14253;44.840;10.444;2023-04-15T12:03:24;6.22;;;3.42;;
26620;SDS011;14253;44.840;10.444;2023-04-15T12:13:53;8.85;;;3.97;;
26620;SDS011;14253;44.840;10.444;2023-04-15T12:16:21;4.18;;;3.08;;
26620;SDS011;14253;44.840;10.444;2023-04-15T12:18:52;7.68;;;3.35;;
26620;SDS011;14253;44.840;10.444;2023-04-15T12:21:22;6.88;;;3.53;;
26620;SDS011;14253;44.840;10.444;2023-04-15T12:23:52;4.55;;;3.17;;
26620;SDS011;14253;44.840;10.444;2023-04-15T12:26:29;6.15;;;3.45;;
26620;SDS011;14253;44.840;10.444;2023-04-15T12:29:06;6.07;;;3.35;;
26620;SDS011;14253;44.840;10.444;2023-04-15T12:31:33;4.75;;;3.13;;
26620;SDS011;14253;44.840;10.444;2023-04-15T12:34:06;7.75;;;3.83;;
26620;SDS011;14253;44.840;10.444;2023-04-15T12:36:33;6.85;;;3.80;;
26620;SDS011;14253;44.840;10.444;2023-04-15T12:39:02;5.55;;;3.25;;
26620;SDS011;14253;44.840;10.444;2023-04-15T12:41:29;3.92;;;2.80;;
26620;SDS011;14253;44.840;10.444;2023-04-15T12:43:58;8.00;;;3.78;;
26620;SDS011;14253;44.840;10.444;2023-04-15T12:46:25;6.95;;;3.65;;
26620;SDS011;14253;44.840;10.444;2023-04-15T12:48:52;8.02;;;3.45;;
26620;SDS011;14253;44.840;10.444;2023-04-15T12:51:18;4.25;;;2.90;;
26620;SDS011;14253;44.840;10.444;2023-04-15T12:53:47;4.93;;;3.35;;
26620;SDS011;14253;44.840;10.444;2023-04-15T12:56:14;5.72;;;3.15;;
26620;SDS011;14253;44.840;10.444;2023-04-15T12:58:41;7.13;;;3.35;;
26620;SDS011;14253;44.840;10.444;2023-04-15T13:01:07;6.70;;;3.55;;
26620;SDS011;14253;44.840;10.444;2023-04-15T13:03:34;4.93;;;2.72;;
26620;SDS011;14253;44.840;10.444;2023-04-15T13:06:00;3.80;;;2.60;;
26620;SDS011;14253;44.840;10.444;2023-04-15T13:08:28;5.15;;;3.08;;
26620;SDS011;14253;44.840;10.444;2023-04-15T13:10:55;5.75;;;3.17;;
26620;SDS011;14253;44.840;10.444;2023-04-15T13:13:21;8.20;;;3.65;;
26620;SDS011;14253;44.840;10.444;2023-04-15T13:15:47;8.13;;;3.58;;
26620;SDS011;14253;44.840;10.444;2023-04-15T13:18:13;8.50;;;3.05;;
26620;SDS011;14253;44.840;10.444;2023-04-15T13:20:39;3.70;;;2.45;;
26620;SDS011;14253;44.840;10.444;2023-04-15T13:23:06;4.78;;;2.83;;
26620;SDS011;14253;44.840;10.444;2023-04-15T13:25:32;6.20;;;3.40;;
26620;SDS011;14253;44.840;10.444;2023-04-15T13:27:57;4.72;;;3.38;;
26620;SDS011;14253;44.840;10.444;2023-04-15T13:30:25;4.55;;;2.90;;
26620;SDS011;14253;44.840;10.444;2023-04-15T13:32:52;4.78;;;2.95;;
26620;SDS011;14253;44.840;10.444;2023-04-15T13:35:18;4.05;;;2.58;;
26620;SDS011;14253;44.840;10.444;2023-04-15T13:37:45;4.22;;;2.80;;
26620;SDS011;14253;44.840;10.444;2023-04-15T13:40:11;5.75;;;2.75;;
26620;SDS011;14253;44.840;10.444;2023-04-15T13:42:37;5.15;;;3.15;;
26620;SDS011;14253;44.840;10.444;2023-04-15T13:45:03;6.20;;;3.28;;
26620;SDS011;14253;44.840;10.444;2023-04-15T13:47:30;5.60;;;2.92;;
26620;SDS011;14253;44.840;10.444;2023-04-15T13:49:56;4.75;;;2.63;;
26620;SDS011;14253;44.840;10.444;2023-04-15T13:52:22;6.22;;;3.00;;
26620;SDS011;14253;44.840;10.444;2023-04-15T13:54:51;5.93;;;2.90;;
26620;SDS011;14253;44.840;10.444;2023-04-15T13:57:16;3.90;;;2.47;;
26620;SDS011;14253;44.840;10.444;2023-04-15T13:59:43;4.95;;;3.20;;
26620;SDS011;14253;44.840;10.444;2023-04-15T14:02:09;6.82;;;2.90;;
26620;SDS011;14253;44.840;10.444;2023-04-15T14:04:36;3.88;;;2.53;;
26620;SDS011;14253;44.840;10.444;2023-04-15T14:07:02;7.10;;;2.65;;
26620;SDS011;14253;44.840;10.444;2023-04-15T14:09:28;6.78;;;2.80;;
26620;SDS011;14253;44.840;10.444;2023-04-15T14:11:54;4.75;;;2.88;;
26620;SDS011;14253;44.840;10.444;2023-04-15T14:14:20;7.20;;;3.05;;
26620;SDS011;14253;44.840;10.444;2023-04-15T14:16:46;6.13;;;2.50;;
26620;SDS011;14253;44.840;10.444;2023-04-15T14:19:13;4.35;;;2.80;;
26620;SDS011;14253;44.840;10.444;2023-04-15T14:21:39;4.65;;;2.58;;
26620;SDS011;14253;44.840;10.444;2023-04-15T14:24:05;6.22;;;2.30;;
26620;SDS011;14253;44.840;10.444;2023-04-15T14:26:31;6.90;;;2.38;;
26620;SDS011;14253;44.840;10.444;2023-04-15T14:28:57;5.28;;;2.42;;
26620;SDS011;14253;44.840;10.444;2023-04-15T14:31:23;5.13;;;2.40;;
26620;SDS011;14253;44.840;10.444;2023-04-15T14:33:51;3.53;;;2.22;;
26620;SDS011;14253;44.840;10.444;2023-04-15T14:36:17;4.35;;;2.10;;
26620;SDS011;14253;44.840;10.444;2023-04-15T14:38:43;5.05;;;2.10;;
26620;SDS011;14253;44.840;10.444;2023-04-15T14:41:09;4.60;;;2.17;;
26620;SDS011;14253;44.840;10.444;2023-04-15T14:43:36;4.47;;;2.08;;
26620;SDS011;14253;44.840;10.444;2023-04-15T14:46:02;3.83;;;1.33;;
26620;SDS011;14253;44.840;10.444;2023-04-15T14:48:29;5.30;;;1.67;;
26620;SDS011;14253;44.840;10.444;2023-04-15T14:50:56;6.63;;;1.90;;
26620;SDS011;14253;44.840;10.444;2023-04-15T14:53:24;3.80;;;1.52;;
26620;SDS011;14253;44.840;10.444;2023-04-15T14:55:50;7.70;;;1.80;;
26620;SDS011;14253;44.840;10.444;2023-04-15T14:58:15;3.22;;;1.45;;
26620;SDS011;14253;44.840;10.444;2023-04-15T15:00:42;5.85;;;1.40;;